RPi & Temperatures at JO21ut

Last graph updates: Sunday 21 April 2019 10:02 CEST

Sunrise: 06:25 & Sunset: 20:46 The Sun is currently visible at an elevation of 36.03 degrees and azimut of 121 and 150348767 Km from the Earth
Moonrise: 23:19 & Moonset: 7:54 Waning Gibbous Moon The Moon is 381812 Km from the Earth
Find here more details on MARS.

10:35:25 up 50 days, 8:23, 0 users, load average: 0.46, 0.45, 0.47
Current CPU frequency is: 1000 Mhz
Current GPU temperature: 32.552°C
Current inside temperature is 21.75°C with a humidity of 40.03%
Second inside temperature is 21.9°C with a pressure of 1019.06 Hpa (29.86 inHg) and an uncorrected altitude of -49.09 m
ds18b20 now showing 21.3°C

All the sensors I use, DHT22 | BMP085 | MPU6050 | BH1750FVI | MMA7455 | HMC5883L | MPL3115A2 | DS1307 | HTU21 | AM2321 | DS3231 | INA219 | LM75A , and it's current readout can be viewed here please be patient as it needs to read all sensors data. The page loads after about 10 seconds. In our forum more details can be found such as the used software/sources. Feel free to add yours also..


Pressure BMP085
Pressure BMP085
Pressure BMP085
Pressure BMP085
PI CPU Temp
Inet Volkel temp
Inside temp BMP085
Humidity BMP085
PI CPU Temp
Inet Volkel temp
Inside temp BMP085
Humidity BMP085
PI CPU Temp
Inet Volkel temp
Inside temp BMP085
Humidity BMP085
PI CPU Temp
Inet Volkel temp
Inside temp BMP085
Humidity BMP085
PI CPU Temp
Inet Volkel temp
Inside temp BMP085
Humidity BMP085
Inside light BH1750FV
Inside light BH1750FV
Inside light BH1750FV
Inside light BH1750FV
Inside light BH1750FV
Inside light BH1750FV
Sunlight hours
 

Sun & Moon height


Wijchen weather

Weer Widget
ScreenSaver yr.no

Sun Moon Earth


EHEH 210825Z AUTO 07006KT 330V100 9999 NCD 18/04 Q1022 BLU 07006KT CAVOK EHEH 210825Z AUTO 07006KT 330V100 9999 NCD 18/04 Q1022 BLU 07006KT CAVOK EHEH 210825Z AUTO 07006KT 330V100 9999 NCD 18/04 Q1022 BLU 07006KT CAVOK

Weather data from Volkel [NL] EHVK


10 minutes ago, at 08:25 UTC, the wind was blowing at a speed of 3.1 meters per second (6.9 miles per hour/6 knots) from East/Northeast (070) in Volkel [EHVK], Netherlands. The temperature was 18 °C (64 °F) with a dewpoint of 4 °C (39 °F), and the pressure was 1,022 hPa (30.18 inHg). The relative humidity was 39.4%. There are no clouds below 1,524 meter (5,000 feet). The visibility was >10 kilometers (>6.2 miles).




View code:

Contact me  |  My Raspberry PI forum